sensor_id;sensor_type;location;lat;lon;timestamp;temperature;humidity
25923;DHT22;13725;51.170;4.442;2023-05-07T00:00:01;17.20;99.90
25923;DHT22;13725;51.170;4.442;2023-05-07T00:02:27;17.10;99.90
25923;DHT22;13725;51.170;4.442;2023-05-07T00:04:52;17.10;99.90
25923;DHT22;13725;51.170;4.442;2023-05-07T00:07:18;17.20;99.90
25923;DHT22;13725;51.170;4.442;2023-05-07T00:09:44;17.20;99.90
25923;DHT22;13725;51.170;4.442;2023-05-07T00:12:10;17.20;99.90
25923;DHT22;13725;51.170;4.442;2023-05-07T00:14:36;17.10;99.90
25923;DHT22;13725;51.170;4.442;2023-05-07T00:17:02;17.10;99.90
25923;DHT22;13725;51.170;4.442;2023-05-07T00:19:27;17.00;99.90
25923;DHT22;13725;51.170;4.442;2023-05-07T00:21:53;17.10;99.90
25923;DHT22;13725;51.170;4.442;2023-05-07T00:24:20;17.10;99.90
25923;DHT22;13725;51.170;4.442;2023-05-07T00:26:45;17.10;99.90
25923;DHT22;13725;51.170;4.442;2023-05-07T00:29:11;17.20;99.90
25923;DHT22;13725;51.170;4.442;2023-05-07T00:31:37;17.10;99.90
25923;DHT22;13725;51.170;4.442;2023-05-07T00:34:02;17.20;99.90
25923;DHT22;13725;51.170;4.442;2023-05-07T00:36:28;17.10;99.90
25923;DHT22;13725;51.170;4.442;2023-05-07T00:38:56;17.10;99.90
25923;DHT22;13725;51.170;4.442;2023-05-07T00:41:22;17.10;99.90
25923;DHT22;13725;51.170;4.442;2023-05-07T00:43:48;17.10;99.90
25923;DHT22;13725;51.170;4.442;2023-05-07T00:46:14;17.10;99.90
25923;DHT22;13725;51.170;4.442;2023-05-07T00:48:41;17.20;99.90
25923;DHT22;13725;51.170;4.442;2023-05-07T00:51:07;17.10;99.90
25923;DHT22;13725;51.170;4.442;2023-05-07T00:53:33;17.10;99.90
25923;DHT22;13725;51.170;4.442;2023-05-07T00:56:00;17.00;99.90
25923;DHT22;13725;51.170;4.442;2023-05-07T00:58:26;17.00;99.90
25923;DHT22;13725;51.170;4.442;2023-05-07T01:00:52;17.00;99.90
25923;DHT22;13725;51.170;4.442;2023-05-07T01:03:18;16.90;99.90
25923;DHT22;13725;51.170;4.442;2023-05-07T01:05:45;16.90;99.90
25923;DHT22;13725;51.170;4.442;2023-05-07T01:08:12;16.80;99.90
25923;DHT22;13725;51.170;4.442;2023-05-07T01:10:38;16.80;99.90
25923;DHT22;13725;51.170;4.442;2023-05-07T01:13:09;16.70;99.90
25923;DHT22;13725;51.170;4.442;2023-05-07T01:15:36;16.70;99.90
25923;DHT22;13725;51.170;4.442;2023-05-07T01:18:03;16.70;99.90
25923;DHT22;13725;51.170;4.442;2023-05-07T01:20:33;16.60;99.90
25923;DHT22;13725;51.170;4.442;2023-05-07T01:23:00;16.60;99.90
25923;DHT22;13725;51.170;4.442;2023-05-07T01:25:26;16.60;99.90
25923;DHT22;13725;51.170;4.442;2023-05-07T01:27:56;16.60;99.90
25923;DHT22;13725;51.170;4.442;2023-05-07T01:30:26;16.60;99.90
25923;DHT22;13725;51.170;4.442;2023-05-07T01:35:29;16.60;99.90
25923;DHT22;13725;51.170;4.442;2023-05-07T01:37:56;16.60;99.90
25923;DHT22;13725;51.170;4.442;2023-05-07T01:40:23;16.50;99.90
25923;DHT22;13725;51.170;4.442;2023-05-07T01:42:50;16.50;99.90
25923;DHT22;13725;51.170;4.442;2023-05-07T01:45:16;16.40;99.90
25923;DHT22;13725;51.170;4.442;2023-05-07T01:47:42;16.40;99.90
25923;DHT22;13725;51.170;4.442;2023-05-07T01:50:09;16.30;99.90
25923;DHT22;13725;51.170;4.442;2023-05-07T01:52:39;16.20;99.90
25923;DHT22;13725;51.170;4.442;2023-05-07T01:55:06;16.10;99.90
25923;DHT22;13725;51.170;4.442;2023-05-07T01:57:32;16.00;99.90
25923;DHT22;13725;51.170;4.442;2023-05-07T01:59:58;15.90;99.90
25923;DHT22;13725;51.170;4.442;2023-05-07T02:02:23;15.90;99.90
25923;DHT22;13725;51.170;4.442;2023-05-07T02:04:50;15.90;99.90
25923;DHT22;13725;51.170;4.442;2023-05-07T02:07:17;15.80;99.90
25923;DHT22;13725;51.170;4.442;2023-05-07T02:09:44;15.80;99.90
25923;DHT22;13725;51.170;4.442;2023-05-07T02:12:10;15.80;99.90
25923;DHT22;13725;51.170;4.442;2023-05-07T02:14:36;15.70;99.90
25923;DHT22;13725;51.170;4.442;2023-05-07T02:17:01;15.80;99.90
25923;DHT22;13725;51.170;4.442;2023-05-07T02:19:27;15.70;99.90
25923;DHT22;13725;51.170;4.442;2023-05-07T02:21:53;15.70;99.90
25923;DHT22;13725;51.170;4.442;2023-05-07T02:24:19;15.80;99.90
25923;DHT22;13725;51.170;4.442;2023-05-07T02:26:45;15.80;99.90
25923;DHT22;13725;51.170;4.442;2023-05-07T02:29:11;15.90;99.90
25923;DHT22;13725;51.170;4.442;2023-05-07T02:31:37;16.00;99.90
25923;DHT22;13725;51.170;4.442;2023-05-07T02:34:03;16.00;99.90
25923;DHT22;13725;51.170;4.442;2023-05-07T02:36:29;16.00;99.90
25923;DHT22;13725;51.170;4.442;2023-05-07T02:39:09;16.10;99.90
25923;DHT22;13725;51.170;4.442;2023-05-07T02:41:34;16.20;99.90
25923;DHT22;13725;51.170;4.442;2023-05-07T02:44:00;16.20;99.90
25923;DHT22;13725;51.170;4.442;2023-05-07T02:46:26;16.20;99.90
25923;DHT22;13725;51.170;4.442;2023-05-07T02:48:59;16.30;99.90
25923;DHT22;13725;51.170;4.442;2023-05-07T02:51:25;16.30;99.90
25923;DHT22;13725;51.170;4.442;2023-05-07T02:53:52;16.30;99.90
25923;DHT22;13725;51.170;4.442;2023-05-07T02:56:18;16.40;99.90
25923;DHT22;13725;51.170;4.442;2023-05-07T02:58:43;16.30;99.90
25923;DHT22;13725;51.170;4.442;2023-05-07T03:01:10;16.40;99.90
25923;DHT22;13725;51.170;4.442;2023-05-07T03:03:46;16.40;99.90
25923;DHT22;13725;51.170;4.442;2023-05-07T03:06:12;16.50;99.90
25923;DHT22;13725;51.170;4.442;2023-05-07T03:08:38;16.50;99.90
25923;DHT22;13725;51.170;4.442;2023-05-07T03:11:03;16.50;99.90
25923;DHT22;13725;51.170;4.442;2023-05-07T03:13:29;16.50;99.90
25923;DHT22;13725;51.170;4.442;2023-05-07T03:15:56;16.60;99.90
25923;DHT22;13725;51.170;4.442;2023-05-07T03:18:22;16.60;99.90
25923;DHT22;13725;51.170;4.442;2023-05-07T03:20:48;16.60;99.90
25923;DHT22;13725;51.170;4.442;2023-05-07T03:23:16;16.70;99.90
25923;DHT22;13725;51.170;4.442;2023-05-07T03:25:42;16.70;99.90
25923;DHT22;13725;51.170;4.442;2023-05-07T03:28:07;16.70;99.90
25923;DHT22;13725;51.170;4.442;2023-05-07T03:30:40;16.70;99.90
25923;DHT22;13725;51.170;4.442;2023-05-07T03:33:05;16.60;99.90
25923;DHT22;13725;51.170;4.442;2023-05-07T03:35:31;16.60;99.90
25923;DHT22;13725;51.170;4.442;2023-05-07T03:37:57;16.50;99.90
25923;DHT22;13725;51.170;4.442;2023-05-07T03:40:26;16.40;99.90
25923;DHT22;13725;51.170;4.442;2023-05-07T03:42:53;16.40;99.90
25923;DHT22;13725;51.170;4.442;2023-05-07T03:45:22;16.50;99.90
25923;DHT22;13725;51.170;4.442;2023-05-07T03:47:57;16.40;99.90
25923;DHT22;13725;51.170;4.442;2023-05-07T03:50:23;16.50;99.90
25923;DHT22;13725;51.170;4.442;2023-05-07T03:52:48;16.40;99.90
25923;DHT22;13725;51.170;4.442;2023-05-07T03:55:17;16.40;99.90
25923;DHT22;13725;51.170;4.442;2023-05-07T03:57:48;16.40;99.90
25923;DHT22;13725;51.170;4.442;2023-05-07T04:00:14;16.40;99.90
25923;DHT22;13725;51.170;4.442;2023-05-07T04:02:46;16.30;99.90
25923;DHT22;13725;51.170;4.442;2023-05-07T04:05:14;16.30;99.90
25923;DHT22;13725;51.170;4.442;2023-05-07T04:07:41;16.20;99.90
25923;DHT22;13725;51.170;4.442;2023-05-07T04:10:09;16.20;99.90
25923;DHT22;13725;51.170;4.442;2023-05-07T04:12:37;16.10;99.90
25923;DHT22;13725;51.170;4.442;2023-05-07T04:15:05;16.00;99.90
25923;DHT22;13725;51.170;4.442;2023-05-07T04:17:31;16.00;99.90
25923;DHT22;13725;51.170;4.442;2023-05-07T04:19:57;16.10;99.90
25923;DHT22;13725;51.170;4.442;2023-05-07T04:22:22;16.20;99.90
25923;DHT22;13725;51.170;4.442;2023-05-07T04:24:48;16.20;99.90
25923;DHT22;13725;51.170;4.442;2023-05-07T04:27:14;16.20;99.90
25923;DHT22;13725;51.170;4.442;2023-05-07T04:29:40;16.10;99.90
25923;DHT22;13725;51.170;4.442;2023-05-07T04:32:09;16.10;99.90
25923;DHT22;13725;51.170;4.442;2023-05-07T04:34:38;16.10;99.90
25923;DHT22;13725;51.170;4.442;2023-05-07T04:37:04;16.10;99.90
25923;DHT22;13725;51.170;4.442;2023-05-07T04:39:30;16.20;99.90
25923;DHT22;13725;51.170;4.442;2023-05-07T04:41:57;16.20;99.90
25923;DHT22;13725;51.170;4.442;2023-05-07T04:44:24;16.30;99.90
25923;DHT22;13725;51.170;4.442;2023-05-07T04:46:50;16.40;99.90
25923;DHT22;13725;51.170;4.442;2023-05-07T04:49:16;16.40;99.90
25923;DHT22;13725;51.170;4.442;2023-05-07T04:51:42;16.40;99.90
25923;DHT22;13725;51.170;4.442;2023-05-07T04:54:10;16.50;99.90
25923;DHT22;13725;51.170;4.442;2023-05-07T04:56:36;16.60;99.90
25923;DHT22;13725;51.170;4.442;2023-05-07T04:59:02;16.70;99.90
25923;DHT22;13725;51.170;4.442;2023-05-07T05:01:29;16.80;99.90
25923;DHT22;13725;51.170;4.442;2023-05-07T05:03:55;16.80;99.90
25923;DHT22;13725;51.170;4.442;2023-05-07T05:06:21;16.80;99.90
25923;DHT22;13725;51.170;4.442;2023-05-07T05:08:46;16.90;99.90
25923;DHT22;13725;51.170;4.442;2023-05-07T05:11:12;16.90;99.90
25923;DHT22;13725;51.170;4.442;2023-05-07T05:13:38;16.90;99.90
25923;DHT22;13725;51.170;4.442;2023-05-07T05:16:10;17.00;99.90
25923;DHT22;13725;51.170;4.442;2023-05-07T05:18:37;17.00;99.90
25923;DHT22;13725;51.170;4.442;2023-05-07T05:21:03;17.00;99.90
25923;DHT22;13725;51.170;4.442;2023-05-07T05:23:30;17.10;99.90
25923;DHT22;13725;51.170;4.442;2023-05-07T05:25:57;17.20;99.90
25923;DHT22;13725;51.170;4.442;2023-05-07T05:28:25;17.30;99.90
25923;DHT22;13725;51.170;4.442;2023-05-07T05:30:51;17.40;99.90
25923;DHT22;13725;51.170;4.442;2023-05-07T05:33:18;17.50;99.90
25923;DHT22;13725;51.170;4.442;2023-05-07T05:35:43;17.60;99.90
25923;DHT22;13725;51.170;4.442;2023-05-07T05:38:11;17.60;99.90
25923;DHT22;13725;51.170;4.442;2023-05-07T05:40:38;17.70;99.90
25923;DHT22;13725;51.170;4.442;2023-05-07T05:43:04;17.80;99.90
25923;DHT22;13725;51.170;4.442;2023-05-07T05:45:30;17.80;99.90
25923;DHT22;13725;51.170;4.442;2023-05-07T05:47:56;17.90;99.90
25923;DHT22;13725;51.170;4.442;2023-05-07T05:50:23;17.80;99.90
25923;DHT22;13725;51.170;4.442;2023-05-07T05:52:49;17.70;99.90
25923;DHT22;13725;51.170;4.442;2023-05-07T05:55:16;17.60;99.90
25923;DHT22;13725;51.170;4.442;2023-05-07T05:57:42;17.80;99.90
25923;DHT22;13725;51.170;4.442;2023-05-07T06:00:10;17.60;99.90
25923;DHT22;13725;51.170;4.442;2023-05-07T06:02:44;17.60;99.90
25923;DHT22;13725;51.170;4.442;2023-05-07T06:05:11;17.60;99.90
25923;DHT22;13725;51.170;4.442;2023-05-07T06:07:38;17.60;99.90
25923;DHT22;13725;51.170;4.442;2023-05-07T06:10:04;17.60;99.90
25923;DHT22;13725;51.170;4.442;2023-05-07T06:12:31;17.60;99.90
25923;DHT22;13725;51.170;4.442;2023-05-07T06:14:57;17.60;99.90
25923;DHT22;13725;51.170;4.442;2023-05-07T06:17:23;17.70;99.90
25923;DHT22;13725;51.170;4.442;2023-05-07T06:19:50;17.80;99.90
25923;DHT22;13725;51.170;4.442;2023-05-07T06:22:18;18.00;99.90
25923;DHT22;13725;51.170;4.442;2023-05-07T06:24:44;18.10;99.90
25923;DHT22;13725;51.170;4.442;2023-05-07T06:27:10;18.20;99.90
25923;DHT22;13725;51.170;4.442;2023-05-07T06:29:36;18.30;99.90
25923;DHT22;13725;51.170;4.442;2023-05-07T06:32:12;18.30;99.90
25923;DHT22;13725;51.170;4.442;2023-05-07T06:34:40;18.40;99.90
25923;DHT22;13725;51.170;4.442;2023-05-07T06:37:07;18.60;99.90
25923;DHT22;13725;51.170;4.442;2023-05-07T06:39:51;18.90;99.90
25923;DHT22;13725;51.170;4.442;2023-05-07T06:42:17;19.10;99.90
25923;DHT22;13725;51.170;4.442;2023-05-07T06:44:46;19.20;99.90
25923;DHT22;13725;51.170;4.442;2023-05-07T06:47:14;19.50;99.90
25923;DHT22;13725;51.170;4.442;2023-05-07T06:49:40;19.70;99.90
25923;DHT22;13725;51.170;4.442;2023-05-07T06:52:06;19.90;99.90
25923;DHT22;13725;51.170;4.442;2023-05-07T06:54:32;20.00;99.90
25923;DHT22;13725;51.170;4.442;2023-05-07T06:56:58;20.00;99.90
25923;DHT22;13725;51.170;4.442;2023-05-07T06:59:26;19.90;99.90
25923;DHT22;13725;51.170;4.442;2023-05-07T07:01:52;19.80;99.90
25923;DHT22;13725;51.170;4.442;2023-05-07T07:04:18;19.70;99.90
25923;DHT22;13725;51.170;4.442;2023-05-07T07:06:53;19.60;99.90
25923;DHT22;13725;51.170;4.442;2023-05-07T07:09:19;19.60;99.90
25923;DHT22;13725;51.170;4.442;2023-05-07T07:11:45;19.60;99.90
25923;DHT22;13725;51.170;4.442;2023-05-07T07:14:11;19.70;99.90
25923;DHT22;13725;51.170;4.442;2023-05-07T07:16:44;19.90;99.90
25923;DHT22;13725;51.170;4.442;2023-05-07T07:19:09;20.10;99.90
25923;DHT22;13725;51.170;4.442;2023-05-07T07:21:35;20.30;99.90
25923;DHT22;13725;51.170;4.442;2023-05-07T07:24:01;20.50;99.90
25923;DHT22;13725;51.170;4.442;2023-05-07T07:26:27;20.80;99.90
25923;DHT22;13725;51.170;4.442;2023-05-07T07:28:54;20.90;99.90
25923;DHT22;13725;51.170;4.442;2023-05-07T07:31:21;21.10;99.90
25923;DHT22;13725;51.170;4.442;2023-05-07T07:33:49;21.30;99.90
25923;DHT22;13725;51.170;4.442;2023-05-07T07:36:15;21.40;99.90
25923;DHT22;13725;51.170;4.442;2023-05-07T07:38:41;21.50;99.90
25923;DHT22;13725;51.170;4.442;2023-05-07T07:41:10;21.60;99.90
25923;DHT22;13725;51.170;4.442;2023-05-07T07:43:36;21.70;99.90
25923;DHT22;13725;51.170;4.442;2023-05-07T07:46:02;21.80;99.90
25923;DHT22;13725;51.170;4.442;2023-05-07T07:48:28;21.80;99.90
25923;DHT22;13725;51.170;4.442;2023-05-07T07:50:55;21.90;99.90
25923;DHT22;13725;51.170;4.442;2023-05-07T07:53:21;21.90;99.90
25923;DHT22;13725;51.170;4.442;2023-05-07T07:55:47;21.90;99.90
25923;DHT22;13725;51.170;4.442;2023-05-07T07:58:16;21.90;99.90
25923;DHT22;13725;51.170;4.442;2023-05-07T08:00:42;22.00;99.90
25923;DHT22;13725;51.170;4.442;2023-05-07T08:03:11;22.00;99.90
25923;DHT22;13725;51.170;4.442;2023-05-07T08:05:40;22.00;99.90
25923;DHT22;13725;51.170;4.442;2023-05-07T08:08:07;22.10;99.90
25923;DHT22;13725;51.170;4.442;2023-05-07T08:10:35;22.30;99.90
25923;DHT22;13725;51.170;4.442;2023-05-07T08:13:08;22.30;99.90
25923;DHT22;13725;51.170;4.442;2023-05-07T08:15:36;22.40;99.90
25923;DHT22;13725;51.170;4.442;2023-05-07T08:18:02;22.60;99.90
25923;DHT22;13725;51.170;4.442;2023-05-07T08:20:29;22.70;99.90
25923;DHT22;13725;51.170;4.442;2023-05-07T08:22:56;22.70;99.90
25923;DHT22;13725;51.170;4.442;2023-05-07T08:25:22;22.80;99.90
25923;DHT22;13725;51.170;4.442;2023-05-07T08:27:48;22.90;99.90
25923;DHT22;13725;51.170;4.442;2023-05-07T08:30:15;23.00;99.90
25923;DHT22;13725;51.170;4.442;2023-05-07T08:32:41;23.00;99.90
25923;DHT22;13725;51.170;4.442;2023-05-07T08:35:07;23.10;99.90
25923;DHT22;13725;51.170;4.442;2023-05-07T08:37:33;23.10;99.90
25923;DHT22;13725;51.170;4.442;2023-05-07T08:39:59;23.10;99.90
25923;DHT22;13725;51.170;4.442;2023-05-07T08:42:31;23.10;99.90
25923;DHT22;13725;51.170;4.442;2023-05-07T08:44:59;23.10;99.90
25923;DHT22;13725;51.170;4.442;2023-05-07T08:47:30;23.10;99.90
25923;DHT22;13725;51.170;4.442;2023-05-07T08:50:01;23.10;99.90
25923;DHT22;13725;51.170;4.442;2023-05-07T08:52:27;23.10;99.90
25923;DHT22;13725;51.170;4.442;2023-05-07T08:54:54;23.10;99.90
25923;DHT22;13725;51.170;4.442;2023-05-07T08:57:21;23.00;99.90
25923;DHT22;13725;51.170;4.442;2023-05-07T08:59:49;23.00;99.90
25923;DHT22;13725;51.170;4.442;2023-05-07T09:02:15;22.90;99.90
25923;DHT22;13725;51.170;4.442;2023-05-07T09:04:42;22.80;99.90
25923;DHT22;13725;51.170;4.442;2023-05-07T09:07:08;22.80;99.90
25923;DHT22;13725;51.170;4.442;2023-05-07T09:09:38;22.80;99.90
25923;DHT22;13725;51.170;4.442;2023-05-07T09:12:05;22.70;99.90
25923;DHT22;13725;51.170;4.442;2023-05-07T09:14:33;22.60;99.90
25923;DHT22;13725;51.170;4.442;2023-05-07T09:17:01;22.50;99.90
25923;DHT22;13725;51.170;4.442;2023-05-07T09:19:27;22.40;99.90
25923;DHT22;13725;51.170;4.442;2023-05-07T09:22:02;22.20;99.90
25923;DHT22;13725;51.170;4.442;2023-05-07T09:24:34;22.10;99.90
25923;DHT22;13725;51.170;4.442;2023-05-07T09:27:04;22.10;99.90
25923;DHT22;13725;51.170;4.442;2023-05-07T09:29:31;22.00;99.90
25923;DHT22;13725;51.170;4.442;2023-05-07T09:32:05;21.90;99.90
25923;DHT22;13725;51.170;4.442;2023-05-07T09:34:32;21.80;99.90
25923;DHT22;13725;51.170;4.442;2023-05-07T09:37:05;21.60;99.90
25923;DHT22;13725;51.170;4.442;2023-05-07T09:39:46;21.50;99.90
25923;DHT22;13725;51.170;4.442;2023-05-07T09:42:14;21.30;99.90
25923;DHT22;13725;51.170;4.442;2023-05-07T09:44:43;21.20;99.90
25923;DHT22;13725;51.170;4.442;2023-05-07T09:47:18;21.00;99.90
25923;DHT22;13725;51.170;4.442;2023-05-07T09:49:47;20.90;99.90
25923;DHT22;13725;51.170;4.442;2023-05-07T09:52:16;20.90;99.90
25923;DHT22;13725;51.170;4.442;2023-05-07T09:54:48;20.80;99.90
25923;DHT22;13725;51.170;4.442;2023-05-07T09:57:19;20.80;99.90
25923;DHT22;13725;51.170;4.442;2023-05-07T09:59:50;20.70;99.90
25923;DHT22;13725;51.170;4.442;2023-05-07T10:02:19;20.70;99.90
25923;DHT22;13725;51.170;4.442;2023-05-07T10:04:50;20.60;99.90
25923;DHT22;13725;51.170;4.442;2023-05-07T10:07:21;20.50;99.90
25923;DHT22;13725;51.170;4.442;2023-05-07T10:09:50;20.40;99.90
25923;DHT22;13725;51.170;4.442;2023-05-07T10:12:24;20.40;99.90
25923;DHT22;13725;51.170;4.442;2023-05-07T10:14:50;20.30;99.90
25923;DHT22;13725;51.170;4.442;2023-05-07T10:17:18;20.20;99.90
25923;DHT22;13725;51.170;4.442;2023-05-07T10:19:45;20.10;99.90
25923;DHT22;13725;51.170;4.442;2023-05-07T10:22:14;20.10;99.90
25923;DHT22;13725;51.170;4.442;2023-05-07T10:24:46;20.00;99.90
25923;DHT22;13725;51.170;4.442;2023-05-07T10:27:17;19.90;99.90
25923;DHT22;13725;51.170;4.442;2023-05-07T10:30:38;19.80;99.90
25923;DHT22;13725;51.170;4.442;2023-05-07T10:32:56;19.80;99.90
25923;DHT22;13725;51.170;4.442;2023-05-07T10:35:37;19.70;99.90
25923;DHT22;13725;51.170;4.442;2023-05-07T10:38:05;19.60;99.90
25923;DHT22;13725;51.170;4.442;2023-05-07T10:40:34;19.60;99.90
25923;DHT22;13725;51.170;4.442;2023-05-07T10:43:03;19.70;99.90
25923;DHT22;13725;51.170;4.442;2023-05-07T10:45:35;19.60;99.90
25923;DHT22;13725;51.170;4.442;2023-05-07T10:50:38;19.70;99.90
25923;DHT22;13725;51.170;4.442;2023-05-07T10:55:51;19.80;99.90
25923;DHT22;13725;51.170;4.442;2023-05-07T10:58:22;19.80;99.90
25923;DHT22;13725;51.170;4.442;2023-05-07T11:01:00;19.60;99.90
25923;DHT22;13725;51.170;4.442;2023-05-07T11:03:33;19.50;99.90
25923;DHT22;13725;51.170;4.442;2023-05-07T11:06:14;19.60;99.90
25923;DHT22;13725;51.170;4.442;2023-05-07T11:08:55;19.70;99.90
25923;DHT22;13725;51.170;4.442;2023-05-07T11:11:47;19.80;99.90
25923;DHT22;13725;51.170;4.442;2023-05-07T11:17:15;19.80;99.90
25923;DHT22;13725;51.170;4.442;2023-05-07T11:19:51;19.80;99.90
25923;DHT22;13725;51.170;4.442;2023-05-07T11:25:08;19.90;99.90
25923;DHT22;13725;51.170;4.442;2023-05-07T11:27:35;19.90;99.90
25923;DHT22;13725;51.170;4.442;2023-05-07T11:30:01;20.00;99.90
25923;DHT22;13725;51.170;4.442;2023-05-07T11:32:29;20.00;99.90
25923;DHT22;13725;51.170;4.442;2023-05-07T11:34:57;20.10;99.90
25923;DHT22;13725;51.170;4.442;2023-05-07T11:37:26;20.20;99.90
25923;DHT22;13725;51.170;4.442;2023-05-07T11:40:07;20.20;99.90
25923;DHT22;13725;51.170;4.442;2023-05-07T11:42:35;20.20;99.90
25923;DHT22;13725;51.170;4.442;2023-05-07T11:45:03;20.30;99.90
25923;DHT22;13725;51.170;4.442;2023-05-07T11:47:33;20.30;99.90
25923;DHT22;13725;51.170;4.442;2023-05-07T11:50:04;20.40;99.90
25923;DHT22;13725;51.170;4.442;2023-05-07T11:52:30;20.50;99.90
25923;DHT22;13725;51.170;4.442;2023-05-07T11:54:57;20.60;99.90
25923;DHT22;13725;51.170;4.442;2023-05-07T11:57:24;20.60;99.90
25923;DHT22;13725;51.170;4.442;2023-05-07T11:59:56;20.60;99.90
25923;DHT22;13725;51.170;4.442;2023-05-07T12:02:23;20.60;99.90
25923;DHT22;13725;51.170;4.442;2023-05-07T12:04:51;20.70;99.90
25923;DHT22;13725;51.170;4.442;2023-05-07T12:07:17;20.70;99.90
25923;DHT22;13725;51.170;4.442;2023-05-07T12:09:44;20.80;99.90
25923;DHT22;13725;51.170;4.442;2023-05-07T12:12:11;20.90;99.90
25923;DHT22;13725;51.170;4.442;2023-05-07T12:14:43;21.00;99.90
25923;DHT22;13725;51.170;4.442;2023-05-07T12:17:10;21.10;99.90
25923;DHT22;13725;51.170;4.442;2023-05-07T12:19:37;21.10;99.90
25923;DHT22;13725;51.170;4.442;2023-05-07T12:22:03;21.10;99.90
25923;DHT22;13725;51.170;4.442;2023-05-07T12:24:39;21.20;99.90
25923;DHT22;13725;51.170;4.442;2023-05-07T12:27:06;21.30;99.90
25923;DHT22;13725;51.170;4.442;2023-05-07T12:29:32;21.50;99.90
25923;DHT22;13725;51.170;4.442;2023-05-07T12:31:58;21.60;99.90
25923;DHT22;13725;51.170;4.442;2023-05-07T12:34:25;21.80;99.90
25923;DHT22;13725;51.170;4.442;2023-05-07T12:36:50;22.00;99.90
25923;DHT22;13725;51.170;4.442;2023-05-07T12:39:16;22.20;99.90
25923;DHT22;13725;51.170;4.442;2023-05-07T12:41:58;22.40;99.90
25923;DHT22;13725;51.170;4.442;2023-05-07T12:44:26;22.70;99.90
25923;DHT22;13725;51.170;4.442;2023-05-07T12:46:54;22.80;99.90
25923;DHT22;13725;51.170;4.442;2023-05-07T12:49:20;22.90;99.90
25923;DHT22;13725;51.170;4.442;2023-05-07T12:51:49;23.00;99.90
25923;DHT22;13725;51.170;4.442;2023-05-07T12:54:30;23.10;99.90
25923;DHT22;13725;51.170;4.442;2023-05-07T12:57:09;23.20;99.90
25923;DHT22;13725;51.170;4.442;2023-05-07T12:59:40;23.40;99.90
25923;DHT22;13725;51.170;4.442;2023-05-07T13:02:06;23.60;99.90
25923;DHT22;13725;51.170;4.442;2023-05-07T13:04:33;23.70;99.90
25923;DHT22;13725;51.170;4.442;2023-05-07T13:07:00;23.70;99.90
25923;DHT22;13725;51.170;4.442;2023-05-07T13:09:26;23.90;99.90
25923;DHT22;13725;51.170;4.442;2023-05-07T13:11:51;24.00;99.90
25923;DHT22;13725;51.170;4.442;2023-05-07T13:14:17;24.10;99.90
25923;DHT22;13725;51.170;4.442;2023-05-07T13:16:43;24.00;99.90
25923;DHT22;13725;51.170;4.442;2023-05-07T13:19:09;24.00;99.90
25923;DHT22;13725;51.170;4.442;2023-05-07T13:21:34;24.20;99.90
25923;DHT22;13725;51.170;4.442;2023-05-07T13:24:00;24.20;99.90
25923;DHT22;13725;51.170;4.442;2023-05-07T13:26:26;24.40;99.90
25923;DHT22;13725;51.170;4.442;2023-05-07T13:28:53;24.70;99.90
25923;DHT22;13725;51.170;4.442;2023-05-07T13:31:19;24.90;99.90
25923;DHT22;13725;51.170;4.442;2023-05-07T13:33:46;25.00;99.90
25923;DHT22;13725;51.170;4.442;2023-05-07T13:36:12;25.10;99.90
25923;DHT22;13725;51.170;4.442;2023-05-07T13:38:39;25.20;99.90
25923;DHT22;13725;51.170;4.442;2023-05-07T13:41:04;25.20;99.90
25923;DHT22;13725;51.170;4.442;2023-05-07T13:43:30;25.30;99.90
25923;DHT22;13725;51.170;4.442;2023-05-07T13:45:57;25.30;99.90
25923;DHT22;13725;51.170;4.442;2023-05-07T13:48:23;25.30;99.90
25923;DHT22;13725;51.170;4.442;2023-05-07T13:50:49;25.10;99.90
25923;DHT22;13725;51.170;4.442;2023-05-07T13:53:15;25.00;99.90
25923;DHT22;13725;51.170;4.442;2023-05-07T13:55:44;25.00;99.90
25923;DHT22;13725;51.170;4.442;2023-05-07T13:58:10;25.00;99.90
25923;DHT22;13725;51.170;4.442;2023-05-07T14:00:36;25.10;99.90
25923;DHT22;13725;51.170;4.442;2023-05-07T14:03:01;25.10;99.90
25923;DHT22;13725;51.170;4.442;2023-05-07T14:05:27;25.20;99.90
25923;DHT22;13725;51.170;4.442;2023-05-07T14:07:54;25.10;99.90
25923;DHT22;13725;51.170;4.442;2023-05-07T14:10:20;25.10;99.90
25923;DHT22;13725;51.170;4.442;2023-05-07T14:12:46;25.00;99.90
25923;DHT22;13725;51.170;4.442;2023-05-07T14:15:14;24.80;99.90
25923;DHT22;13725;51.170;4.442;2023-05-07T14:17:39;24.70;99.90
25923;DHT22;13725;51.170;4.442;2023-05-07T14:20:05;24.70;99.90
25923;DHT22;13725;51.170;4.442;2023-05-07T14:22:32;24.50;99.90
25923;DHT22;13725;51.170;4.442;2023-05-07T14:24:58;24.40;99.90
25923;DHT22;13725;51.170;4.442;2023-05-07T14:27:23;24.20;99.90
25923;DHT22;13725;51.170;4.442;2023-05-07T14:29:49;24.00;99.90
25923;DHT22;13725;51.170;4.442;2023-05-07T14:32:19;23.70;99.90
25923;DHT22;13725;51.170;4.442;2023-05-07T14:34:45;23.60;99.90
25923;DHT22;13725;51.170;4.442;2023-05-07T14:37:12;23.80;99.90
25923;DHT22;13725;51.170;4.442;2023-05-07T14:39:38;23.80;99.90
25923;DHT22;13725;51.170;4.442;2023-05-07T14:42:04;24.00;99.90
25923;DHT22;13725;51.170;4.442;2023-05-07T14:44:29;23.90;99.90
25923;DHT22;13725;51.170;4.442;2023-05-07T14:46:56;23.80;99.90
25923;DHT22;13725;51.170;4.442;2023-05-07T14:49:22;23.80;99.90
25923;DHT22;13725;51.170;4.442;2023-05-07T14:51:49;23.90;99.90
25923;DHT22;13725;51.170;4.442;2023-05-07T14:54:15;24.10;99.90
25923;DHT22;13725;51.170;4.442;2023-05-07T14:56:42;24.20;99.90
25923;DHT22;13725;51.170;4.442;2023-05-07T14:59:08;24.40;99.90
25923;DHT22;13725;51.170;4.442;2023-05-07T15:01:35;24.40;99.90
25923;DHT22;13725;51.170;4.442;2023-05-07T15:04:02;24.50;99.90
25923;DHT22;13725;51.170;4.442;2023-05-07T15:06:28;24.50;99.90
25923;DHT22;13725;51.170;4.442;2023-05-07T15:08:54;24.50;99.90
25923;DHT22;13725;51.170;4.442;2023-05-07T15:11:20;24.50;99.90
25923;DHT22;13725;51.170;4.442;2023-05-07T15:13:46;24.50;99.90
25923;DHT22;13725;51.170;4.442;2023-05-07T15:16:12;24.50;99.90
25923;DHT22;13725;51.170;4.442;2023-05-07T15:18:38;24.60;99.90
25923;DHT22;13725;51.170;4.442;2023-05-07T15:21:03;24.60;99.90
25923;DHT22;13725;51.170;4.442;2023-05-07T15:23:31;24.70;99.90
25923;DHT22;13725;51.170;4.442;2023-05-07T15:25:57;24.70;99.90
25923;DHT22;13725;51.170;4.442;2023-05-07T15:28:22;24.50;99.90
25923;DHT22;13725;51.170;4.442;2023-05-07T15:30:49;24.40;99.90
25923;DHT22;13725;51.170;4.442;2023-05-07T15:33:15;24.20;99.90
25923;DHT22;13725;51.170;4.442;2023-05-07T15:35:41;23.80;99.90
25923;DHT22;13725;51.170;4.442;2023-05-07T15:38:07;23.40;99.90
25923;DHT22;13725;51.170;4.442;2023-05-07T15:40:34;23.20;99.90
25923;DHT22;13725;51.170;4.442;2023-05-07T15:43:03;23.10;99.90
25923;DHT22;13725;51.170;4.442;2023-05-07T15:45:28;22.70;99.90